Time;durP1;ratioP1;P1;durP2;ratioP2;P2;SDS_P1;SDS_P2;PMS_P1;PMS_P2;Temp;Humidity;BMP_temperature;BMP_pressure;BME280_temperature;BME280_humidity;BME280_pressure;Samples;Min_cycle;Max_cycle;Signal;HPM_P1;HPM_P2
2022/03/12 00:01:47;;;;;;;20.00;11.85;;;-0.20;99.90;;;;;;4997879;28;20833;-65
2022/03/12 00:04:14;;;;;;;15.90;11.77;;;-0.20;99.90;;;;;;5004202;28;20081;-65
2022/03/12 00:06:41;;;;;;;24.45;13.13;;;-0.20;99.90;;;;;;5001485;28;20080;-73
2022/03/12 00:09:08;;;;;;;22.88;12.13;;;-0.30;99.90;;;;;;5003443;28;20199;-69
2022/03/12 00:11:46;;;;;;;24.05;12.68;;;-0.40;99.90;;;;;;5003317;28;20076;-64
2022/03/12 00:14:14;;;;;;;18.90;12.00;;;-0.40;99.90;;;;;;5003273;28;20061;-72
2022/03/12 00:16:43;;;;;;;21.92;12.65;;;-0.50;99.90;;;;;;5001244;28;20042;-65
2022/03/12 00:19:10;;;;;;;24.95;12.25;;;-0.50;99.90;;;;;;4992275;28;20046;-66
2022/03/12 00:21:42;;;;;;;22.48;12.40;;;-0.50;99.90;;;;;;5010044;28;20081;-71
2022/03/12 00:24:14;;;;;;;21.23;13.38;;;-0.60;99.90;;;;;;5010621;28;20054;-65
2022/03/12 00:26:43;;;;;;;26.13;12.15;;;-0.50;99.90;;;;;;5013467;28;20053;-70
2022/03/12 00:29:14;;;;;;;21.63;13.95;;;-0.50;99.90;;;;;;5007490;28;20161;-71
2022/03/12 00:31:47;;;;;;;22.30;13.13;;;-0.60;99.90;;;;;;5014616;28;20145;-66
2022/03/12 00:34:14;;;;;;;23.13;13.00;;;-0.70;99.90;;;;;;4990848;28;20070;-67
2022/03/12 00:36:42;;;;;;;23.95;12.88;;;-0.70;99.90;;;;;;5006345;28;20049;-68
2022/03/12 00:39:11;;;;;;;21.40;14.13;;;-0.80;99.90;;;;;;5000062;28;20050;-70
2022/03/12 00:41:42;;;;;;;25.88;13.35;;;-0.80;99.90;;;;;;5000638;28;20065;-71
2022/03/12 00:44:12;;;;;;;22.03;12.37;;;-0.90;99.90;;;;;;5007770;28;20458;-67
2022/03/12 00:46:39;;;;;;;22.02;14.23;;;-0.90;99.90;;;;;;5005662;28;20104;-67
2022/03/12 00:49:06;;;;;;;23.45;13.70;;;-1.00;99.90;;;;;;5007024;28;20073;-65
2022/03/12 00:51:33;;;;;;;20.63;14.35;;;-1.00;99.90;;;;;;5005015;28;20104;-69
2022/03/12 00:54:00;;;;;;;24.67;13.60;;;-1.10;99.90;;;;;;5000672;28;20077;-75
2022/03/12 00:56:27;;;;;;;21.83;13.13;;;-1.10;99.90;;;;;;5006202;28;20797;-68
2022/03/12 00:58:54;;;;;;;29.02;14.05;;;-1.10;99.90;;;;;;5013302;28;20131;-66
2022/03/12 01:01:23;;;;;;;23.27;13.73;;;-1.20;99.90;;;;;;5007013;28;20081;-67
2022/03/12 01:03:51;;;;;;;26.17;15.88;;;-1.20;99.90;;;;;;5004473;28;20063;-66
2022/03/12 01:06:18;;;;;;;27.55;14.88;;;-1.20;99.90;;;;;;5008216;28;20109;-64
2022/03/12 01:08:49;;;;;;;19.45;13.20;;;-1.30;99.90;;;;;;4998733;28;20058;-72
2022/03/12 01:11:17;;;;;;;26.90;15.13;;;-1.30;99.90;;;;;;5005305;28;20068;-64
2022/03/12 01:13:44;;;;;;;25.00;14.52;;;-1.30;99.90;;;;;;5005090;28;20088;-65
2022/03/12 01:16:11;;;;;;;17.55;12.95;;;-1.40;99.90;;;;;;5004849;28;20054;-70
2022/03/12 01:18:39;;;;;;;21.73;13.80;;;-1.40;99.90;;;;;;4999134;28;20578;-69
2022/03/12 01:21:18;;;;;;;29.35;13.50;;;-1.40;99.90;;;;;;4996010;28;20046;-67
2022/03/12 01:23:47;;;;;;;23.45;13.95;;;-1.50;99.90;;;;;;4987840;28;20117;-69
2022/03/12 01:26:15;;;;;;;26.80;15.68;;;-1.50;99.90;;;;;;5007178;28;20120;-64
2022/03/12 01:28:43;;;;;;;27.40;13.90;;;-1.60;99.90;;;;;;5007593;28;20247;-70
2022/03/12 01:31:10;;;;;;;25.15;14.43;;;-1.60;99.90;;;;;;5003458;28;20135;-66
2022/03/12 01:33:38;;;;;;;24.63;14.70;;;-1.60;99.90;;;;;;5000295;28;20156;-65
2022/03/12 01:36:05;;;;;;;29.75;14.77;;;-1.60;99.90;;;;;;4994045;28;20438;-70
2022/03/12 01:38:35;;;;;;;24.08;13.48;;;-1.60;99.90;;;;;;5008532;28;20054;-66
2022/03/12 01:41:03;;;;;;;25.45;14.18;;;-1.70;99.90;;;;;;5002491;28;20700;-69
2022/03/12 01:43:36;;;;;;;26.52;16.33;;;-1.70;99.90;;;;;;5005832;28;20057;-68
2022/03/12 01:46:09;;;;;;;25.48;15.77;;;-1.80;99.90;;;;;;5004625;28;20070;-70
2022/03/12 01:48:44;;;;;;;23.40;13.68;;;-1.80;99.90;;;;;;5003827;28;20085;-70
2022/03/12 01:51:11;;;;;;;27.02;14.77;;;-1.80;99.90;;;;;;4994556;28;20044;-65
2022/03/12 01:53:37;;;;;;;24.92;15.80;;;-1.80;99.90;;;;;;5013627;28;20075;-66
2022/03/12 01:56:05;;;;;;;27.17;15.30;;;-1.90;99.90;;;;;;5011209;28;20133;-66
2022/03/12 01:58:34;;;;;;;25.20;16.08;;;-1.90;99.90;;;;;;5002542;28;20100;-65
2022/03/12 02:01:02;;;;;;;34.47;18.35;;;-2.00;99.90;;;;;;5001513;28;20429;-71
2022/03/12 02:03:31;;;;;;;23.83;15.50;;;-2.00;99.90;;;;;;5003634;28;20415;-65
2022/03/12 02:05:59;;;;;;;31.45;16.70;;;-2.00;99.90;;;;;;5002179;28;20053;-71
2022/03/12 02:08:28;;;;;;;26.20;17.60;;;-2.00;99.90;;;;;;5011589;28;20136;-64
2022/03/12 02:10:59;;;;;;;32.90;18.55;;;-2.10;99.90;;;;;;4994071;28;20069;-65
2022/03/12 02:13:27;;;;;;;27.02;17.27;;;-2.10;99.90;;;;;;5001776;28;20149;-69
2022/03/12 02:16:06;;;;;;;27.95;16.95;;;-2.10;99.90;;;;;;5001628;28;20077;-64
2022/03/12 02:18:34;;;;;;;32.08;18.00;;;-2.10;99.90;;;;;;5001210;28;20092;-69
2022/03/12 02:21:01;;;;;;;34.88;17.75;;;-2.10;99.90;;;;;;5002334;28;20137;-69
2022/03/12 02:23:28;;;;;;;30.83;17.80;;;-2.10;99.90;;;;;;5007146;28;20073;-64
2022/03/12 02:26:02;;;;;;;32.97;18.00;;;-2.10;99.90;;;;;;4995710;28;20046;-65
2022/03/12 02:28:29;;;;;;;33.83;18.13;;;-2.10;99.90;;;;;;5005287;28;20056;-66
2022/03/12 02:30:57;;;;;;;30.20;18.98;;;-2.10;99.90;;;;;;5004049;28;20133;-64
2022/03/12 02:33:28;;;;;;;33.72;18.65;;;-2.10;99.90;;;;;;5007345;28;20050;-67
2022/03/12 02:35:57;;;;;;;38.45;20.40;;;-2.10;99.90;;;;;;4995498;28;20049;-71
2022/03/12 02:38:26;;;;;;;33.70;20.15;;;-2.10;99.90;;;;;;4999612;28;20050;-70
2022/03/12 02:40:56;;;;;;;34.00;17.90;;;-2.20;99.90;;;;;;5003621;28;20160;-69
2022/03/12 02:43:26;;;;;;;39.35;20.38;;;-2.20;99.90;;;;;;4994554;28;20088;-72
2022/03/12 02:45:57;;;;;;;43.95;22.10;;;-2.20;99.90;;;;;;4998592;28;20049;-69
2022/03/12 02:48:25;;;;;;;40.38;20.15;;;-2.20;99.90;;;;;;4996560;28;20075;-65
2022/03/12 02:50:53;;;;;;;33.92;22.05;;;-2.20;99.90;;;;;;4997741;28;20145;-67
2022/03/12 02:53:20;;;;;;;37.17;20.38;;;-2.30;99.90;;;;;;5003922;28;20069;-69
2022/03/12 02:55:47;;;;;;;32.17;20.00;;;-2.30;99.90;;;;;;5006194;28;20124;-68
2022/03/12 02:58:16;;;;;;;33.72;21.92;;;-2.30;99.90;;;;;;5004872;28;20049;-64
2022/03/12 03:00:43;;;;;;;36.25;22.35;;;-2.30;99.90;;;;;;5000743;28;20144;-68
2022/03/12 03:03:10;;;;;;;35.53;22.27;;;-2.30;99.90;;;;;;4999668;28;20052;-70
2022/03/12 03:05:45;;;;;;;31.92;19.10;;;-2.30;99.90;;;;;;5002597;28;20058;-65
2022/03/12 03:08:17;;;;;;;31.60;20.40;;;-2.20;99.90;;;;;;5002508;28;20638;-68
2022/03/12 03:10:47;;;;;;;36.50;20.70;;;-2.20;99.90;;;;;;5007869;28;20046;-67
2022/03/12 03:13:16;;;;;;;34.05;21.80;;;-2.20;99.90;;;;;;5004118;28;20137;-71
2022/03/12 03:15:46;;;;;;;35.15;19.70;;;-2.10;99.90;;;;;;5003768;28;20060;-69
2022/03/12 03:18:18;;;;;;;39.63;21.15;;;-2.10;99.90;;;;;;5004018;28;20076;-66
2022/03/12 03:20:45;;;;;;;34.30;20.50;;;-2.10;99.90;;;;;;4999989;28;20449;-67
2022/03/12 03:23:13;;;;;;;31.92;20.52;;;-2.10;99.90;;;;;;5000054;28;20129;-70
2022/03/12 03:25:46;;;;;;;35.78;19.65;;;-2.10;99.90;;;;;;5000726;28;20729;-64
2022/03/12 03:28:13;;;;;;;33.72;20.27;;;-2.10;99.90;;;;;;5001679;28;20050;-72
2022/03/12 03:30:41;;;;;;;37.80;20.38;;;-2.10;99.90;;;;;;5010867;28;20507;-74
2022/03/12 03:33:17;;;;;;;36.70;19.52;;;-2.10;99.90;;;;;;5002055;28;20445;-67
2022/03/12 03:35:44;;;;;;;34.20;18.88;;;-2.10;99.90;;;;;;5001222;28;20045;-66
2022/03/12 03:38:13;;;;;;;30.80;19.58;;;-2.10;99.90;;;;;;5003573;28;20136;-68
2022/03/12 03:40:41;;;;;;;34.90;19.48;;;-2.10;99.90;;;;;;4999970;28;20140;-64
2022/03/12 03:43:12;;;;;;;35.90;19.83;;;-2.10;99.90;;;;;;5003600;28;20216;-64
2022/03/12 03:45:40;;;;;;;36.78;20.30;;;-2.10;99.90;;;;;;5001190;28;20050;-68
2022/03/12 03:48:12;;;;;;;38.25;20.58;;;-2.10;99.90;;;;;;5001792;28;20054;-64
2022/03/12 03:50:41;;;;;;;40.00;21.27;;;-2.10;99.90;;;;;;4998732;28;20500;-71
2022/03/12 03:53:11;;;;;;;42.88;21.80;;;-2.10;99.90;;;;;;4993600;28;20073;-64
2022/03/12 03:55:39;;;;;;;37.92;20.33;;;-2.10;99.90;;;;;;5005114;28;20058;-68
2022/03/12 03:58:06;;;;;;;35.60;18.73;;;-2.10;99.90;;;;;;5008100;28;20062;-64
2022/03/12 04:00:33;;;;;;;32.72;20.35;;;-2.10;99.90;;;;;;5012801;28;20100;-65
2022/03/12 04:03:04;;;;;;;34.80;20.35;;;-2.10;99.90;;;;;;5014276;28;20088;-71
2022/03/12 04:05:34;;;;;;;34.67;18.75;;;-2.10;99.90;;;;;;5008940;28;20050;-64
2022/03/12 04:08:06;;;;;;;34.28;20.67;;;-2.10;99.90;;;;;;5008718;28;20057;-64
2022/03/12 04:10:35;;;;;;;38.78;20.02;;;-2.10;99.90;;;;;;5004390;28;20539;-69
2022/03/12 04:13:09;;;;;;;37.03;18.70;;;-2.00;99.90;;;;;;5002971;28;20068;-68
2022/03/12 04:15:37;;;;;;;32.00;18.30;;;-2.00;99.90;;;;;;5006983;28;20050;-65
2022/03/12 04:18:05;;;;;;;34.35;18.88;;;-2.00;99.90;;;;;;4992124;28;20073;-66
2022/03/12 04:20:32;;;;;;;45.30;21.60;;;-2.00;99.90;;;;;;5008462;28;20042;-64
2022/03/12 04:23:00;;;;;;;42.33;21.92;;;-2.00;99.90;;;;;;5004425;28;21007;-64
2022/03/12 04:25:31;;;;;;;37.83;19.80;;;-2.00;99.90;;;;;;5006566;28;21588;-66
2022/03/12 04:27:59;;;;;;;34.95;20.95;;;-1.90;99.90;;;;;;5002299;28;20141;-65
2022/03/12 04:30:31;;;;;;;34.78;19.17;;;-1.90;99.90;;;;;;5002303;28;20046;-65
2022/03/12 04:32:58;;;;;;;37.35;20.77;;;-1.90;99.90;;;;;;5005050;28;20543;-67
2022/03/12 04:35:25;;;;;;;42.45;21.17;;;-2.00;99.90;;;;;;5006929;28;20058;-66
2022/03/12 04:37:52;;;;;;;32.92;19.38;;;-2.00;99.90;;;;;;5005430;28;20046;-70
2022/03/12 04:40:22;;;;;;;36.28;20.67;;;-2.00;99.90;;;;;;5001953;28;20085;-68
2022/03/12 04:42:50;;;;;;;37.83;17.70;;;-2.00;99.90;;;;;;5003137;28;20130;-66
2022/03/12 04:45:21;;;;;;;40.38;22.48;;;-1.90;99.90;;;;;;5005725;28;20061;-68
2022/03/12 04:47:49;;;;;;;34.30;19.80;;;-1.90;99.90;;;;;;5007818;28;20041;-68
2022/03/12 04:50:18;;;;;;;42.97;22.35;;;-1.90;99.90;;;;;;5007987;28;20128;-64
2022/03/12 04:52:48;;;;;;;46.17;24.40;;;-1.90;99.90;;;;;;5005782;28;20128;-64
2022/03/12 04:55:19;;;;;;;47.03;22.65;;;-1.80;99.90;;;;;;5004259;28;20566;-66
2022/03/12 04:57:47;;;;;;;42.00;20.77;;;-1.80;99.90;;;;;;5008016;28;20140;-67
2022/03/12 05:00:28;;;;;;;37.45;20.70;;;-1.80;99.90;;;;;;5018759;28;20438;-65
2022/03/12 05:03:03;;;;;;;42.85;22.75;;;-1.70;99.90;;;;;;5004075;28;20045;-66
2022/03/12 05:05:30;;;;;;;40.97;22.35;;;-1.60;99.90;;;;;;5005525;28;20045;-64
2022/03/12 05:07:58;;;;;;;45.80;21.85;;;-1.60;99.90;;;;;;5007043;28;20129;-64
2022/03/12 05:10:28;;;;;;;35.17;21.20;;;-1.50;99.90;;;;;;5008293;28;20554;-65
2022/03/12 05:13:00;;;;;;;37.47;23.45;;;-1.50;99.90;;;;;;5005667;28;20303;-66
2022/03/12 05:15:32;;;;;;;36.15;20.00;;;-1.40;99.90;;;;;;5021616;28;20045;-65
2022/03/12 05:17:59;;;;;;;42.25;22.00;;;-1.40;99.90;;;;;;5007243;28;20049;-72
2022/03/12 05:20:27;;;;;;;47.83;22.35;;;-1.40;99.90;;;;;;5004811;28;20053;-67
2022/03/12 05:22:54;;;;;;;38.35;22.85;;;-1.30;99.90;;;;;;5006652;28;20073;-66
2022/03/12 05:25:21;;;;;;;40.97;24.20;;;-1.10;99.90;;;;;;5006614;28;20593;-67
2022/03/12 05:27:53;;;;;;;44.78;21.67;;;-1.00;99.90;;;;;;5007237;28;20104;-64
2022/03/12 05:30:22;;;;;;;43.13;22.30;;;-1.10;99.90;;;;;;5008162;28;20077;-64
2022/03/12 05:32:50;;;;;;;39.08;21.23;;;-0.90;99.90;;;;;;5006042;28;20352;-64
2022/03/12 05:35:20;;;;;;;40.47;20.23;;;-0.80;99.90;;;;;;5011796;28;20523;-67
2022/03/12 05:37:50;;;;;;;42.75;22.10;;;-0.70;99.90;;;;;;5006318;28;20061;-65
2022/03/12 05:40:25;;;;;;;37.35;21.42;;;-0.70;99.90;;;;;;5008385;28;20112;-66
2022/03/12 05:42:56;;;;;;;33.88;22.77;;;-0.70;99.90;;;;;;4998592;28;20559;-64
2022/03/12 05:45:23;;;;;;;38.42;22.98;;;-0.70;99.90;;;;;;5002520;28;20786;-64
2022/03/12 05:47:51;;;;;;;46.08;22.88;;;-0.70;99.90;;;;;;5000770;28;20093;-70
2022/03/12 05:50:19;;;;;;;48.70;22.20;;;-0.70;99.90;;;;;;4997354;28;20049;-65
2022/03/12 05:52:48;;;;;;;36.13;21.40;;;-0.60;99.90;;;;;;5004043;28;20053;-64
2022/03/12 05:55:20;;;;;;;53.45;28.52;;;-0.60;99.90;;;;;;5004416;28;20080;-65
2022/03/12 05:57:48;;;;;;;41.97;24.10;;;-0.60;99.90;;;;;;5005356;28;20468;-69
2022/03/12 06:00:17;;;;;;;35.75;20.50;;;-0.50;99.90;;;;;;5011906;28;20049;-65
2022/03/12 06:02:52;;;;;;;34.03;18.35;;;-0.40;99.90;;;;;;5006786;28;20041;-66
2022/03/12 06:05:26;;;;;;;33.40;17.60;;;-0.30;99.90;;;;;;5002698;28;20056;-65
2022/03/12 06:07:54;;;;;;;27.75;17.17;;;-0.20;99.90;;;;;;5004314;28;20042;-64
2022/03/12 06:10:25;;;;;;;32.30;18.90;;;-0.10;99.90;;;;;;5006509;28;20050;-67
2022/03/12 06:12:53;;;;;;;34.88;18.17;;;0.00;99.90;;;;;;4996670;28;20054;-67
2022/03/12 06:15:27;;;;;;;37.50;21.55;;;0.00;99.90;;;;;;5001847;28;20467;-64
2022/03/12 06:17:54;;;;;;;;;;;0.00;99.90;;;;;;5004544;28;20172;-65
2022/03/12 06:20:22;;;;;;;26.45;19.48;;;0.10;99.90;;;;;;5000868;28;20700;-64
2022/03/12 06:22:51;;;;;;;41.30;20.17;;;0.10;99.90;;;;;;4993511;28;20517;-68
2022/03/12 06:25:20;;;;;;;;;;;0.30;99.90;;;;;;4994337;28;20050;-64
2022/03/12 06:27:53;;;;;;;25.77;15.45;;;0.30;99.90;;;;;;4991337;28;20040;-68
2022/03/12 06:30:26;;;;;;;27.13;15.55;;;0.40;99.90;;;;;;4992370;28;20066;-71
2022/03/12 06:32:55;;;;;;;25.83;16.77;;;0.50;99.90;;;;;;4996587;28;20155;-64
2022/03/12 06:35:23;;;;;;;26.92;15.95;;;0.60;99.90;;;;;;5002455;28;20793;-70
2022/03/12 06:37:50;;;;;;;20.48;13.07;;;0.70;99.90;;;;;;5000820;28;20045;-65
2022/03/12 06:40:20;;;;;;;24.88;15.35;;;0.80;99.90;;;;;;4999018;28;20049;-65
2022/03/12 06:42:51;;;;;;;24.48;13.98;;;0.90;99.90;;;;;;4987725;28;20077;-65
2022/03/12 06:45:18;;;;;;;20.58;13.43;;;1.00;99.90;;;;;;5007275;28;20057;-65
2022/03/12 06:47:46;;;;;;;21.85;13.40;;;1.10;99.90;;;;;;4999593;28;20365;-68
2022/03/12 06:50:19;;;;;;;20.48;12.98;;;1.10;99.90;;;;;;4997496;28;20168;-67
2022/03/12 06:52:48;;;;;;;21.25;12.40;;;1.20;99.90;;;;;;4997627;28;20459;-67
2022/03/12 06:55:21;;;;;;;19.70;12.68;;;1.30;99.90;;;;;;5001406;28;20050;-64
2022/03/12 06:57:51;;;;;;;17.08;11.90;;;1.40;99.90;;;;;;4995517;28;20101;-68
2022/03/12 07:00:23;;;;;;;21.45;13.57;;;1.50;99.90;;;;;;4993506;28;20415;-64
2022/03/12 07:02:51;;;;;;;18.23;11.05;;;1.50;99.90;;;;;;4996735;28;20490;-65
2022/03/12 07:05:19;;;;;;;17.20;10.88;;;1.50;99.90;;;;;;4996386;28;20167;-64
2022/03/12 07:07:46;;;;;;;18.05;10.05;;;1.60;99.90;;;;;;5001655;28;20097;-65
2022/03/12 07:10:13;;;;;;;20.20;12.13;;;1.60;99.90;;;;;;4998347;28;20120;-64
2022/03/12 07:12:45;;;;;;;20.60;10.82;;;1.60;99.90;;;;;;4989591;28;20064;-66
2022/03/12 07:15:13;;;;;;;21.15;11.55;;;1.60;99.90;;;;;;4992372;28;20062;-64
2022/03/12 07:17:42;;;;;;;15.38;10.25;;;1.60;99.90;;;;;;4999665;28;20042;-69
2022/03/12 07:20:12;;;;;;;17.35;10.93;;;1.60;99.90;;;;;;4994974;28;20551;-70
2022/03/12 07:22:40;;;;;;;17.80;10.68;;;1.60;99.90;;;;;;4994996;28;20180;-65
2022/03/12 07:25:12;;;;;;;25.45;11.35;;;1.70;99.90;;;;;;4998135;28;20058;-67
2022/03/12 07:27:39;;;;;;;19.25;12.10;;;1.70;99.90;;;;;;4998118;28;20467;-66
2022/03/12 07:30:09;;;;;;;19.25;10.00;;;1.70;99.90;;;;;;5001190;28;20049;-69
2022/03/12 07:32:36;;;;;;;18.13;11.00;;;1.70;99.90;;;;;;4999391;28;20084;-64
2022/03/12 07:35:04;;;;;;;20.40;10.82;;;1.70;99.90;;;;;;4994817;28;20200;-66
2022/03/12 07:37:31;;;;;;;18.08;11.48;;;1.70;99.90;;;;;;4999315;28;20042;-65
2022/03/12 07:39:58;;;;;;;20.45;12.05;;;1.80;99.90;;;;;;4997207;28;20056;-65
2022/03/12 07:42:25;;;;;;;21.10;10.68;;;1.80;99.90;;;;;;5003642;28;20615;-64
2022/03/12 07:44:53;;;;;;;17.75;11.50;;;1.90;99.90;;;;;;4998879;28;20526;-70
2022/03/12 07:47:20;;;;;;;15.35;10.30;;;1.90;99.90;;;;;;4996632;28;20073;-64
2022/03/12 07:49:47;;;;;;;14.52;9.35;;;2.00;99.90;;;;;;4994494;28;20085;-64
2022/03/12 07:52:15;;;;;;;18.08;9.88;;;2.10;99.90;;;;;;4997532;28;20049;-65
2022/03/12 07:54:42;;;;;;;16.25;10.23;;;2.20;99.90;;;;;;4992785;28;20048;-70
2022/03/12 07:57:09;;;;;;;17.48;10.75;;;2.20;99.90;;;;;;4994613;28;20074;-66
2022/03/12 07:59:37;;;;;;;14.25;10.30;;;2.30;99.90;;;;;;4994801;28;20153;-65
2022/03/12 08:02:04;;;;;;;17.45;11.43;;;2.40;99.90;;;;;;4997073;28;20054;-71
2022/03/12 08:04:33;;;;;;;17.15;9.93;;;2.40;99.90;;;;;;4996687;28;20042;-69
2022/03/12 08:07:02;;;;;;;14.00;10.95;;;2.60;99.90;;;;;;4995734;28;20054;-66
2022/03/12 08:09:31;;;;;;;16.98;10.60;;;2.60;99.90;;;;;;4995001;28;20046;-66
2022/03/12 08:11:59;;;;;;;20.42;11.00;;;2.70;99.90;;;;;;4993021;28;20108;-65
2022/03/12 08:14:26;;;;;;;17.25;9.73;;;2.80;99.90;;;;;;4992065;28;20077;-69
2022/03/12 08:16:54;;;;;;;17.40;9.07;;;2.90;99.90;;;;;;4989775;28;20047;-66
2022/03/12 08:19:21;;;;;;;16.17;9.10;;;2.90;99.90;;;;;;4994339;28;20049;-68
2022/03/12 08:21:49;;;;;;;18.27;10.25;;;3.00;99.90;;;;;;4997435;28;20156;-69
2022/03/12 08:24:17;;;;;;;13.02;8.40;;;3.10;99.90;;;;;;4993194;28;20133;-69
2022/03/12 08:26:46;;;;;;;12.93;8.77;;;3.10;99.90;;;;;;4993411;28;20070;-68
2022/03/12 08:29:14;;;;;;;12.38;7.80;;;3.20;99.90;;;;;;4995745;28;20126;-71
2022/03/12 08:31:42;;;;;;;17.77;9.25;;;3.20;99.90;;;;;;4996154;28;20135;-65
2022/03/12 08:34:11;;;;;;;14.00;8.95;;;3.30;99.90;;;;;;5001060;28;20046;-67
2022/03/12 08:36:38;;;;;;;16.35;9.15;;;3.30;99.90;;;;;;5003019;28;20082;-67
2022/03/12 08:39:05;;;;;;;17.48;10.05;;;3.30;99.90;;;;;;4999234;28;20054;-70
2022/03/12 08:41:34;;;;;;;17.38;9.52;;;3.30;99.90;;;;;;5004357;28;20427;-64
2022/03/12 08:44:01;;;;;;;16.25;9.43;;;3.40;99.90;;;;;;5001402;28;20049;-70
2022/03/12 08:46:28;;;;;;;16.58;11.50;;;3.50;99.90;;;;;;5003286;28;20062;-64
2022/03/12 08:48:56;;;;;;;19.38;9.43;;;3.50;99.90;;;;;;5003086;28;20143;-67
2022/03/12 08:51:23;;;;;;;18.83;9.52;;;3.60;99.90;;;;;;5003689;28;20062;-69
2022/03/12 08:53:50;;;;;;;14.20;9.48;;;3.60;99.90;;;;;;4999412;28;20142;-63
2022/03/12 08:56:17;;;;;;;15.07;9.82;;;3.60;99.90;;;;;;4999058;28;20846;-64
2022/03/12 08:58:44;;;;;;;14.52;10.10;;;3.70;99.90;;;;;;4998017;28;20080;-66
2022/03/12 09:01:12;;;;;;;18.65;10.63;;;3.70;99.90;;;;;;5002096;28;20400;-66
2022/03/12 09:03:40;;;;;;;17.25;10.65;;;3.60;99.90;;;;;;4999052;28;20045;-64
2022/03/12 09:06:07;;;;;;;21.20;11.57;;;3.70;99.90;;;;;;4995496;28;20407;-63
2022/03/12 09:08:34;;;;;;;18.38;10.45;;;3.80;99.90;;;;;;5002194;28;20084;-67
2022/03/12 09:11:01;;;;;;;17.85;12.52;;;3.90;99.90;;;;;;5002496;28;20112;-64
2022/03/12 09:13:28;;;;;;;25.05;11.38;;;3.90;99.90;;;;;;4999173;28;20536;-69
2022/03/12 09:15:56;;;;;;;20.80;10.82;;;3.90;99.90;;;;;;4999859;28;20149;-65
2022/03/12 09:18:24;;;;;;;14.98;11.02;;;3.80;99.90;;;;;;5003689;28;20057;-67
2022/03/12 09:20:51;;;;;;;21.25;12.18;;;3.80;99.90;;;;;;4999664;28;20089;-64
2022/03/12 09:23:21;;;;;;;22.38;11.93;;;3.80;99.90;;;;;;4992915;28;20393;-63
2022/03/12 09:25:50;;;;;;;15.68;11.35;;;3.90;99.90;;;;;;4998181;28;20053;-69
2022/03/12 09:28:20;;;;;;;24.10;13.40;;;3.90;99.90;;;;;;5004019;28;20061;-67
2022/03/12 09:30:51;;;;;;;17.35;11.38;;;4.00;99.90;;;;;;4998802;28;20049;-64
2022/03/12 09:33:22;;;;;;;20.02;9.40;;;4.00;99.90;;;;;;5001861;28;20065;-73
2022/03/12 09:35:55;;;;;;;15.18;11.52;;;4.10;99.90;;;;;;5000888;28;20080;-64
2022/03/12 09:38:22;;;;;;;19.90;10.93;;;4.00;99.90;;;;;;5004504;28;20077;-67
2022/03/12 09:40:50;;;;;;;19.13;12.27;;;4.10;99.90;;;;;;4997816;28;20432;-66
2022/03/12 09:43:17;;;;;;;19.95;12.35;;;4.10;99.90;;;;;;5003285;28;20108;-68
2022/03/12 09:45:44;;;;;;;24.17;13.60;;;4.10;99.90;;;;;;4999467;28;20176;-71
2022/03/12 09:48:18;;;;;;;17.77;11.07;;;4.20;99.90;;;;;;5000043;28;20153;-68
2022/03/12 09:50:44;;;;;;;19.35;11.60;;;4.30;99.90;;;;;;5001855;28;20084;-66
2022/03/12 09:53:12;;;;;;;19.42;12.05;;;4.40;99.90;;;;;;5006074;28;20045;-69
2022/03/12 09:55:39;;;;;;;22.02;13.75;;;4.30;99.90;;;;;;5005063;28;20939;-69
2022/03/12 09:58:06;;;;;;;18.83;12.48;;;4.30;99.90;;;;;;5004044;28;20054;-64
2022/03/12 10:00:33;;;;;;;17.63;12.40;;;4.40;99.90;;;;;;5005683;28;20045;-70
2022/03/12 10:03:01;;;;;;;22.98;11.90;;;4.40;99.90;;;;;;4997339;28;20044;-65
2022/03/12 10:05:28;;;;;;;20.10;11.82;;;4.50;99.90;;;;;;5006933;28;20104;-66
2022/03/12 10:07:55;;;;;;;20.25;11.88;;;4.40;99.90;;;;;;5004530;28;20085;-67
2022/03/12 10:10:24;;;;;;;20.70;11.70;;;4.50;99.90;;;;;;5001762;28;20097;-65
2022/03/12 10:12:52;;;;;;;20.75;10.80;;;4.50;99.90;;;;;;4991501;28;20074;-67
2022/03/12 10:15:19;;;;;;;20.92;12.82;;;4.40;99.90;;;;;;4998222;28;20137;-72
2022/03/12 10:17:47;;;;;;;18.92;11.88;;;4.50;99.90;;;;;;4989432;28;20046;-68
2022/03/12 10:20:15;;;;;;;22.08;11.93;;;4.60;99.90;;;;;;4987003;28;20077;-67
2022/03/12 10:22:45;;;;;;;20.13;14.07;;;4.50;99.90;;;;;;4998326;28;20112;-74
2022/03/12 10:25:12;;;;;;;;;;;4.50;99.90;;;;;;4997942;28;20116;-66
2022/03/12 10:27:40;;;;;;;23.10;13.15;;;4.60;99.90;;;;;;4996795;28;19929;-66
2022/03/12 10:30:08;;;;;;;18.63;12.70;;;4.60;99.90;;;;;;4996709;28;20074;-65
2022/03/12 10:32:44;;;;;;;19.42;12.98;;;4.60;99.90;;;;;;5000374;28;20149;-64
2022/03/12 10:35:18;;;;;;;20.77;13.52;;;4.70;99.90;;;;;;4994019;28;20039;-64
2022/03/12 10:37:47;;;;;;;27.25;14.02;;;4.70;99.90;;;;;;4999132;28;20053;-64
2022/03/12 10:40:19;;;;;;;31.35;13.52;;;4.70;99.90;;;;;;5002316;28;20445;-66
2022/03/12 10:42:51;;;;;;;27.40;16.30;;;4.80;99.90;;;;;;4998632;28;20073;-68
2022/03/12 10:45:21;;;;;;;25.23;14.00;;;4.70;99.90;;;;;;5000801;28;20058;-64
2022/03/12 10:47:51;;;;;;;22.50;12.65;;;4.80;99.90;;;;;;5001637;28;20050;-65
2022/03/12 10:50:22;;;;;;;20.83;14.02;;;4.80;99.90;;;;;;5002994;28;20069;-64
2022/03/12 10:52:51;;;;;;;21.25;13.25;;;4.80;99.90;;;;;;5001706;28;20053;-67
2022/03/12 10:55:26;;;;;;;25.02;14.95;;;4.80;99.90;;;;;;4996538;28;20738;-68
2022/03/12 10:57:58;;;;;;;23.63;13.38;;;4.80;99.90;;;;;;5000649;28;20077;-64
2022/03/12 11:00:27;;;;;;;24.63;14.70;;;4.80;99.90;;;;;;4998975;28;20662;-64
2022/03/12 11:02:57;;;;;;;21.50;14.50;;;4.80;99.90;;;;;;5000053;28;20489;-69
2022/03/12 11:05:27;;;;;;;28.83;15.38;;;4.90;99.90;;;;;;4999417;28;20127;-70
2022/03/12 11:08:16;;;;;;;22.35;13.25;;;5.00;99.90;;;;;;4995345;28;20050;-68
2022/03/12 11:10:51;;;;;;;24.13;14.00;;;4.90;99.90;;;;;;5001946;28;20072;-63
2022/03/12 11:13:35;;;;;;;23.15;15.52;;;4.90;99.90;;;;;;5001341;28;20145;-69
2022/03/12 11:16:16;;;;;;;21.58;14.07;;;5.00;99.90;;;;;;5004174;28;20070;-69
2022/03/12 11:18:52;;;;;;;22.67;14.20;;;5.00;99.90;;;;;;4998102;28;20052;-70
2022/03/12 11:21:45;;;;;;;18.60;13.48;;;4.80;99.90;;;;;;4995185;28;20065;-68
2022/03/12 11:24:26;;;;;;;25.48;15.15;;;4.80;99.90;;;;;;5002401;28;20064;-64
2022/03/12 11:26:59;;;;;;;20.77;13.98;;;4.80;99.90;;;;;;5001000;28;20423;-70
2022/03/12 11:29:28;;;;;;;22.63;15.35;;;4.90;99.90;;;;;;5000092;28;20120;-67
2022/03/12 11:32:09;;;;;;;23.98;13.82;;;4.70;99.90;;;;;;5002088;28;20042;-65
2022/03/12 11:34:41;;;;;;;27.15;15.52;;;4.80;99.90;;;;;;5000436;28;20781;-67
2022/03/12 11:37:18;;;;;;;22.05;14.45;;;4.70;99.90;;;;;;4993457;28;20516;-64
2022/03/12 11:39:55;;;;;;;35.95;21.58;;;4.80;99.90;;;;;;4996279;28;20125;-66
2022/03/12 11:42:26;;;;;;;34.40;14.23;;;4.90;99.90;;;;;;4999098;28;20159;-64
2022/03/12 11:44:59;;;;;;;29.35;15.65;;;4.90;99.90;;;;;;4994438;28;20111;-64
2022/03/12 11:47:35;;;;;;;21.88;14.80;;;4.90;99.90;;;;;;4996313;28;20137;-64
2022/03/12 11:50:05;;;;;;;23.02;15.10;;;5.00;99.90;;;;;;5002406;28;20045;-68
2022/03/12 11:52:33;;;;;;;22.63;13.65;;;5.00;99.90;;;;;;4999362;28;20042;-63
2022/03/12 11:55:02;;;;;;;24.52;15.57;;;5.00;99.90;;;;;;4998124;28;20049;-67
2022/03/12 11:57:31;;;;;;;21.02;13.88;;;5.00;99.90;;;;;;4996869;28;20225;-64
2022/03/12 12:00:00;;;;;;;17.70;13.27;;;4.90;99.90;;;;;;5002225;28;20112;-65
2022/03/12 12:02:32;;;;;;;19.52;13.88;;;4.90;99.90;;;;;;5000683;28;20053;-65
2022/03/12 12:05:03;;;;;;;17.92;12.88;;;4.70;99.90;;;;;;4999797;28;24895;-63
2022/03/12 12:07:36;;;;;;;20.35;15.20;;;4.80;99.90;;;;;;5000930;28;20050;-64
2022/03/12 12:10:06;;;;;;;21.98;14.32;;;4.80;99.90;;;;;;5002621;28;20073;-67
2022/03/12 12:12:43;;;;;;;24.90;14.02;;;4.90;99.90;;;;;;5001450;28;20133;-64
2022/03/12 12:15:22;;;;;;;;;;;4.90;99.90;;;;;;5004148;28;20120;-67
2022/03/12 12:17:51;;;;;;;24.35;14.02;;;4.80;99.90;;;;;;5004652;28;19953;-64
2022/03/12 12:20:21;;;;;;;21.98;14.00;;;4.90;99.90;;;;;;5004146;28;20116;-65
2022/03/12 12:22:53;;;;;;;25.65;17.30;;;4.90;99.90;;;;;;5004001;28;20050;-64
2022/03/12 12:25:20;;;;;;;17.60;12.48;;;5.00;99.90;;;;;;5004631;28;20116;-64
2022/03/12 12:27:54;;;;;;;21.75;14.30;;;5.10;99.90;;;;;;5000928;28;20469;-68
2022/03/12 12:30:41;;;;;;;20.67;14.77;;;5.00;99.90;;;;;;5001976;28;20459;-63
2022/03/12 12:33:35;;;;;;;23.05;14.35;;;4.90;99.90;;;;;;5005778;28;20042;-68
2022/03/12 12:36:08;;;;;;;17.33;13.95;;;4.80;99.90;;;;;;5006245;28;20116;-63
2022/03/12 12:38:36;;;;;;;25.73;13.77;;;4.90;99.90;;;;;;5007860;28;20050;-64
2022/03/12 12:41:03;;;;;;;24.27;14.20;;;4.80;99.90;;;;;;5000962;28;20164;-64
2022/03/12 12:43:40;;;;;;;19.35;14.70;;;4.80;99.90;;;;;;5006863;28;20455;-66
2022/03/12 12:46:12;;;;;;;22.08;14.82;;;4.80;99.90;;;;;;5007831;28;20481;-63